Griffin, Texas
Current Conditions -  °F | °C
As of 10:15 AM on Friday 21 Nov 2014 (Local Time) from KJSO Reporting Station
Light Rain Light Rain  
Wind Chill: 59°   Ceiling: 500
Heat Index: 59°   Visibility: 10mi
Dew Point: 58°   Wind: 9mph
Humidity: 97%   Direction: 140°SE
Pressure: 30.2"   Gusts: NA
Location:  32.0774°N, 95.1103°W
Report Text: KJSO 211615Z AUTO 14008KT 10SM -RA BKN005 OVC010 15/15 A3020 RMK AO2 T01520147
Loading
Personal Weather Stations






























Interactive Weather Map New forecast layout! Learn more

10-Day Weather Forecast

Advertisements
Track Severe Weather on mobile